createdAt,value
2022-10-05T00:00:18.995Z,21.83
2022-10-05T00:02:48.850Z,30.77
2022-10-05T00:05:26.838Z,23.40
2022-10-05T00:07:58.753Z,27.27
2022-10-05T00:10:27.303Z,21.20
2022-10-05T00:12:56.002Z,23.67
2022-10-05T00:15:25.874Z,23.37
2022-10-05T00:17:54.495Z,22.53
2022-10-05T00:20:25.281Z,24.03
2022-10-05T00:22:59.224Z,24.93
2022-10-05T00:25:27.889Z,19.93
2022-10-05T00:27:58.392Z,24.73
2022-10-05T00:30:34.030Z,29.73
2022-10-05T00:33:02.533Z,22.93
2022-10-05T00:35:31.579Z,19.47
2022-10-05T00:38:00.265Z,23.03
2022-10-05T00:40:42.467Z,20.37
2022-10-05T00:43:41.249Z,19.87
2022-10-05T00:46:17.386Z,23.60
2022-10-05T00:48:55.252Z,19.50
2022-10-05T00:51:27.313Z,21.30
2022-10-05T00:54:12.542Z,17.87
2022-10-05T00:57:01.301Z,20.13
2022-10-05T00:59:44.129Z,20.13
2022-10-05T01:02:19.222Z,20.80
2022-10-05T01:04:54.086Z,19.37
2022-10-05T01:07:33.648Z,21.40
2022-10-05T01:10:10.976Z,20.80
2022-10-05T01:12:43.661Z,20.67
2022-10-05T01:15:23.135Z,18.67
2022-10-05T01:17:58.196Z,19.90
2022-10-05T01:20:42.085Z,21.57
2022-10-05T01:23:33.772Z,25.03
2022-10-05T01:26:16.719Z,21.80
2022-10-05T01:28:53.425Z,17.10
2022-10-05T01:31:29.670Z,17.13
2022-10-05T01:34:11.333Z,17.63
2022-10-05T01:36:46.738Z,19.33
2022-10-05T01:39:25.305Z,20.40
2022-10-05T01:42:06.571Z,21.57
2022-10-05T01:44:43.973Z,13.60
2022-10-05T01:47:22.405Z,15.37
2022-10-05T01:50:01.105Z,15.83
2022-10-05T01:52:40.566Z,18.33
2022-10-05T01:55:19.802Z,16.20
2022-10-05T01:58:07.036Z,18.57
2022-10-05T02:00:46.814Z,16.37
2022-10-05T02:03:20.357Z,17.43
2022-10-05T02:05:53.811Z,17.33
2022-10-05T02:08:27.644Z,19.97
2022-10-05T02:11:03.007Z,15.63
2022-10-05T02:13:35.693Z,18.93
2022-10-05T02:16:10.293Z,21.27
2022-10-05T02:18:44.496Z,20.47
2022-10-05T02:21:13.164Z,19.90
2022-10-05T02:23:44.059Z,23.43
2022-10-05T02:26:13.789Z,20.97
2022-10-05T02:28:48.665Z,19.00
2022-10-05T02:31:23.681Z,18.53
2022-10-05T02:33:52.235Z,23.43
2022-10-05T02:36:30.440Z,26.40
2022-10-05T02:39:05.866Z,23.70
2022-10-05T02:41:43.781Z,21.33
2022-10-05T02:44:21.550Z,21.87
2022-10-05T02:46:59.002Z,21.53
2022-10-05T02:49:34.429Z,20.00
2022-10-05T02:52:10.966Z,19.33
2022-10-05T02:54:47.178Z,21.13
2022-10-05T02:57:24.343Z,19.23
2022-10-05T03:00:04.537Z,19.63
2022-10-05T03:02:39.550Z,19.73
2022-10-05T03:05:19.929Z,18.73
2022-10-05T03:07:56.532Z,16.23
2022-10-05T03:10:30.885Z,15.63
2022-10-05T03:13:06.547Z,16.70
2022-10-05T03:15:59.913Z,16.00
2022-10-05T03:18:45.733Z,15.90
2022-10-05T03:21:27.537Z,18.20
2022-10-05T03:24:17.258Z,18.40
2022-10-05T03:26:53.823Z,18.20
2022-10-05T03:29:30.442Z,18.00
2022-10-05T03:32:08.768Z,16.43
2022-10-05T03:34:47.223Z,17.80
2022-10-05T03:37:23.828Z,18.43
2022-10-05T03:39:56.954Z,17.23
2022-10-05T03:42:36.143Z,15.50
2022-10-05T03:45:10.412Z,22.20
2022-10-05T03:47:48.565Z,18.17
2022-10-05T03:50:32.317Z,16.27
2022-10-05T03:53:04.952Z,14.97
2022-10-05T03:55:39.031Z,18.77
2022-10-05T03:58:12.299Z,13.97
2022-10-05T04:00:46.112Z,15.10
2022-10-05T04:03:21.250Z,18.33
2022-10-05T04:05:56.256Z,15.93
2022-10-05T04:08:31.828Z,15.80
2022-10-05T04:11:05.587Z,15.33
2022-10-05T04:13:38.399Z,13.83
2022-10-05T04:16:12.447Z,16.17
2022-10-05T04:18:45.890Z,14.20
2022-10-05T04:21:23.921Z,18.87
2022-10-05T04:24:00.021Z,16.17
2022-10-05T04:26:35.773Z,16.60
2022-10-05T04:29:09.561Z,19.60
2022-10-05T04:31:53.148Z,18.40
2022-10-05T04:34:40.178Z,21.90
2022-10-05T04:37:20.119Z,17.67
2022-10-05T04:40:09.788Z,19.93
2022-10-05T04:42:45.432Z,19.33
2022-10-05T04:45:26.961Z,21.77
2022-10-05T04:48:22.234Z,20.17
2022-10-05T04:51:08.798Z,19.03
2022-10-05T04:53:48.872Z,19.63
2022-10-05T04:56:21.350Z,22.43
2022-10-05T04:59:10.278Z,25.80
2022-10-05T05:01:52.531Z,22.97
2022-10-05T05:04:42.102Z,22.13
2022-10-05T05:07:22.732Z,22.63
2022-10-05T05:10:19.706Z,25.83
2022-10-05T05:12:58.602Z,22.80
2022-10-05T05:15:41.346Z,29.20
2022-10-05T05:18:39.422Z,24.33
2022-10-05T05:21:18.795Z,22.00
2022-10-05T05:23:53.017Z,22.23
2022-10-05T05:26:32.039Z,25.53
2022-10-05T05:29:15.148Z,23.87
2022-10-05T05:31:48.826Z,22.30
2022-10-05T05:34:34.961Z,21.00
2022-10-05T05:37:11.493Z,22.47
2022-10-05T05:39:47.155Z,22.17
2022-10-05T05:42:28.592Z,19.77
2022-10-05T05:45:04.027Z,19.87
2022-10-05T05:47:37.880Z,17.47
2022-10-05T05:50:22.026Z,17.80
2022-10-05T05:52:54.449Z,18.73
2022-10-05T05:55:30.139Z,15.63
2022-10-05T05:58:07.557Z,16.60
2022-10-05T06:00:42.781Z,16.77
2022-10-05T06:03:17.796Z,16.57
2022-10-05T06:05:50.779Z,13.70
2022-10-05T06:08:28.776Z,17.27
2022-10-05T06:11:07.720Z,12.93
2022-10-05T06:13:41.276Z,13.93
2022-10-05T06:16:18.728Z,12.23
2022-10-05T06:18:52.753Z,13.37
2022-10-05T06:21:27.181Z,13.53
2022-10-05T06:24:00.093Z,11.93
2022-10-05T06:26:47.237Z,12.80
2022-10-05T06:29:23.831Z,15.00
2022-10-05T06:32:05.930Z,13.60
2022-10-05T06:34:56.932Z,13.07
2022-10-05T06:37:49.499Z,11.93
2022-10-05T06:40:28.758Z,12.97
2022-10-05T06:43:11.039Z,15.93
2022-10-05T06:46:12.939Z,11.83
2022-10-05T06:49:14.983Z,9.17
2022-10-05T06:52:10.495Z,8.53
2022-10-05T06:54:56.376Z,11.40
2022-10-05T06:57:44.359Z,7.43
2022-10-05T07:00:19.429Z,8.47
2022-10-05T07:02:58.613Z,9.70
2022-10-05T07:05:56.072Z,7.57
2022-10-05T07:08:34.784Z,12.53
2022-10-05T07:11:15.571Z,7.57
2022-10-05T07:14:04.066Z,12.73
2022-10-05T07:16:45.534Z,11.77
2022-10-05T07:19:27.801Z,8.87
2022-10-05T07:22:10.514Z,12.87
2022-10-05T07:24:46.031Z,10.23
2022-10-05T07:27:18.865Z,8.30
2022-10-05T07:29:57.661Z,8.23
2022-10-05T07:32:34.698Z,8.93
2022-10-05T07:35:33.153Z,7.57
2022-10-05T07:38:08.134Z,11.47
2022-10-05T07:40:42.916Z,8.87
2022-10-05T07:43:32.056Z,6.27
2022-10-05T07:46:18.427Z,6.43
2022-10-05T07:48:57.864Z,6.57
2022-10-05T07:51:34.159Z,9.63
2022-10-05T07:54:14.675Z,5.33
2022-10-05T07:56:45.394Z,6.70
2022-10-05T07:59:26.118Z,6.50
2022-10-05T08:02:02.823Z,11.70
2022-10-05T08:04:41.750Z,8.67
2022-10-05T08:07:16.790Z,8.90
2022-10-05T08:09:51.618Z,6.40
2022-10-05T08:12:31.700Z,5.47
2022-10-05T08:15:06.371Z,5.13
2022-10-05T08:17:42.229Z,6.17
2022-10-05T08:20:39.906Z,9.63
2022-10-05T08:23:23.278Z,6.13
2022-10-05T08:26:16.139Z,11.13
2022-10-05T08:28:53.122Z,4.83
2022-10-05T08:31:24.934Z,10.07
2022-10-05T08:33:59.674Z,9.90
2022-10-05T08:36:45.182Z,4.63
2022-10-05T08:39:19.363Z,9.10
2022-10-05T08:42:19.792Z,5.87
2022-10-05T08:45:11.778Z,5.43
2022-10-05T08:48:05.863Z,5.33
2022-10-05T08:51:00.060Z,8.03
2022-10-05T08:53:46.263Z,7.00
2022-10-05T08:56:40.196Z,6.50
2022-10-05T08:59:43.319Z,5.63
2022-10-05T09:02:25.862Z,6.07
2022-10-05T09:05:11.287Z,6.30
2022-10-05T09:08:15.955Z,5.07
2022-10-05T09:11:13.515Z,4.60
2022-10-05T09:14:04.594Z,7.40
2022-10-05T09:17:09.667Z,4.73
2022-10-05T09:20:16.823Z,4.73
2022-10-05T09:22:59.596Z,3.87
2022-10-05T09:25:43.310Z,4.93
2022-10-05T09:28:33.829Z,4.37
2022-10-05T09:31:26.343Z,5.03
2022-10-05T09:34:39.667Z,4.47
2022-10-05T09:37:37.463Z,6.33
2022-10-05T09:40:48.488Z,5.00
2022-10-05T09:43:47.675Z,4.87
2022-10-05T09:46:51.600Z,5.83
2022-10-05T09:49:49.068Z,5.20
2022-10-05T09:52:54.184Z,4.70
2022-10-05T09:56:01.236Z,6.40
2022-10-05T09:59:14.852Z,7.27
2022-10-05T10:02:05.505Z,5.97
2022-10-05T10:05:07.512Z,6.30
2022-10-05T10:08:07.182Z,5.23
2022-10-05T10:11:09.842Z,5.47
2022-10-05T10:13:53.896Z,4.00
2022-10-05T10:16:41.886Z,4.23
2022-10-05T10:19:48.118Z,6.60
2022-10-05T10:22:43.096Z,4.40
2022-10-05T10:25:47.332Z,5.93
2022-10-05T10:28:44.231Z,3.73
2022-10-05T10:31:32.775Z,6.40
2022-10-05T10:34:20.234Z,3.83
2022-10-05T10:37:14.276Z,3.47
2022-10-05T10:40:04.357Z,3.77
2022-10-05T10:42:42.874Z,3.97
2022-10-05T10:45:20.660Z,4.45
2022-10-05T10:48:01.925Z,3.23
2022-10-05T10:51:15.754Z,6.00
2022-10-05T10:54:15.028Z,4.07
2022-10-05T10:56:51.938Z,4.93
2022-10-05T10:59:56.780Z,5.00
2022-10-05T11:02:42.299Z,4.40
2022-10-05T11:05:33.795Z,2.80
2022-10-05T11:08:38.872Z,4.13
2022-10-05T11:11:42.718Z,3.13
2022-10-05T11:14:43.924Z,6.47
2022-10-05T11:17:40.881Z,5.35
2022-10-05T11:20:28.653Z,3.53
2022-10-05T11:23:13.212Z,6.35
2022-10-05T11:25:56.327Z,7.35
2022-10-05T11:28:53.797Z,6.38
2022-10-05T11:32:00.008Z,4.93
2022-10-05T11:34:53.121Z,6.68
2022-10-05T11:37:45.656Z,3.47
2022-10-05T11:40:39.536Z,4.03
2022-10-05T11:43:37.935Z,6.25
2022-10-05T11:46:14.554Z,7.43
2022-10-05T11:49:14.968Z,6.90
2022-10-05T11:51:53.311Z,5.13
2022-10-05T11:55:05.994Z,3.92
2022-10-05T11:57:33.799Z,4.45
2022-10-05T12:00:12.324Z,3.50
2022-10-05T12:02:57.345Z,5.03
2022-10-05T12:05:33.738Z,4.18
2022-10-05T12:08:18.355Z,13.35
2022-10-05T12:10:57.313Z,6.90
2022-10-05T12:13:36.800Z,2.40
2022-10-05T12:16:11.384Z,5.50
2022-10-05T12:18:49.602Z,3.47
2022-10-05T12:21:28.653Z,3.17
2022-10-05T12:24:02.564Z,3.70
2022-10-05T12:26:35.530Z,8.77
2022-10-05T12:29:15.672Z,5.28
2022-10-05T12:31:55.514Z,7.25
2022-10-05T12:34:48.689Z,3.50
2022-10-05T12:37:38.361Z,4.97
2022-10-05T12:40:19.641Z,2.92
2022-10-05T12:42:55.858Z,5.30
2022-10-05T12:45:36.313Z,3.55
2022-10-05T12:48:29.176Z,6.30
2022-10-05T12:51:01.697Z,6.57
2022-10-05T12:53:42.093Z,4.82
2022-10-05T12:56:17.059Z,6.45
2022-10-05T12:58:53.766Z,8.68
2022-10-05T13:01:34.947Z,4.22
2022-10-05T13:04:14.752Z,9.43
2022-10-05T13:06:49.490Z,6.95
2022-10-05T13:09:26.546Z,3.88
2022-10-05T13:12:00.473Z,6.85
2022-10-05T13:14:47.719Z,8.45
2022-10-05T13:17:24.536Z,11.43
2022-10-05T13:19:59.013Z,9.75
2022-10-05T13:22:35.393Z,9.55
2022-10-05T13:25:19.305Z,7.93
2022-10-05T13:27:54.393Z,8.50
2022-10-05T13:30:23.130Z,10.18
2022-10-05T13:32:57.934Z,7.68
2022-10-05T13:35:40.490Z,7.93
2022-10-05T13:38:19.200Z,9.80
2022-10-05T13:40:54.499Z,5.90
2022-10-05T13:43:29.156Z,9.25
2022-10-05T13:46:07.956Z,9.63
2022-10-05T13:49:01.428Z,3.85
2022-10-05T13:51:40.724Z,7.70
2022-10-05T13:54:18.557Z,9.57
2022-10-05T13:56:55.458Z,4.43
2022-10-05T13:59:31.553Z,8.23
2022-10-05T14:02:05.902Z,6.30
2022-10-05T14:04:46.737Z,3.25
2022-10-05T14:07:24.818Z,4.80
2022-10-05T14:09:53.578Z,5.20
2022-10-05T14:12:24.405Z,3.42
2022-10-05T14:14:54.575Z,4.38
2022-10-05T14:17:39.115Z,7.93
2022-10-05T14:20:26.064Z,4.63
2022-10-05T14:22:58.431Z,3.08
2022-10-05T14:25:28.139Z,4.45
2022-10-05T14:28:04.773Z,4.40
2022-10-05T14:30:35.012Z,9.38
2022-10-05T14:33:17.201Z,5.55
2022-10-05T14:35:50.308Z,4.70
2022-10-05T14:38:21.963Z,3.90
2022-10-05T14:41:19.095Z,5.90
2022-10-05T14:43:54.556Z,12.27
2022-10-05T14:46:28.149Z,5.60
2022-10-05T14:49:17.831Z,4.80
2022-10-05T14:51:46.400Z,4.25
2022-10-05T14:54:27.536Z,5.78
2022-10-05T14:57:04.411Z,5.80
2022-10-05T15:00:01.425Z,3.20
2022-10-05T15:02:55.586Z,2.67
2022-10-05T15:05:31.330Z,7.30
2022-10-05T15:08:15.690Z,4.72
2022-10-05T15:10:51.954Z,8.73
2022-10-05T15:13:23.349Z,5.90
2022-10-05T15:15:57.584Z,9.20
2022-10-05T15:18:37.513Z,4.60
2022-10-05T15:21:35.717Z,4.38
2022-10-05T15:24:09.331Z,5.32
2022-10-05T15:26:49.171Z,6.43
2022-10-05T15:29:31.749Z,4.40
2022-10-05T15:32:14.523Z,9.27
2022-10-05T15:34:50.316Z,4.45
2022-10-05T15:37:27.231Z,4.45
2022-10-05T15:39:58.203Z,3.53
2022-10-05T15:42:36.460Z,4.65
2022-10-05T15:45:15.726Z,4.45
2022-10-05T15:47:52.368Z,4.57
2022-10-05T15:50:25.183Z,5.45
2022-10-05T15:53:02.231Z,2.47
2022-10-05T15:55:48.856Z,5.78
2022-10-05T15:58:32.142Z,2.88
2022-10-05T16:01:08.601Z,5.78
2022-10-05T16:03:49.312Z,7.38
2022-10-05T16:06:51.808Z,3.67
2022-10-05T16:09:56.167Z,3.33
2022-10-05T16:12:37.354Z,9.27
2022-10-05T16:15:26.573Z,9.38
2022-10-05T16:18:32.249Z,10.80
2022-10-05T16:21:14.126Z,10.38
2022-10-05T16:23:58.645Z,8.23
2022-10-05T16:26:38.619Z,10.70
2022-10-05T16:29:11.332Z,9.33
2022-10-05T16:31:49.093Z,15.00
2022-10-05T16:37:03.764Z,12.53
2022-10-05T16:39:49.748Z,12.57
2022-10-05T16:42:30.844Z,8.20
2022-10-05T16:45:08.907Z,6.83
2022-10-05T16:47:47.885Z,10.03
2022-10-05T16:50:24.455Z,11.43
2022-10-05T16:52:59.914Z,8.57
2022-10-05T16:55:35.500Z,13.83
2022-10-05T16:58:12.719Z,9.83
2022-10-05T17:01:06.219Z,12.20
2022-10-05T17:03:49.591Z,9.90
2022-10-05T17:06:40.096Z,9.80
2022-10-05T17:09:34.872Z,10.10
2022-10-05T17:12:16.980Z,13.23
2022-10-05T17:15:00.320Z,15.70
2022-10-05T17:17:38.556Z,19.67
2022-10-05T17:20:32.007Z,17.00
2022-10-05T17:23:16.915Z,15.23
2022-10-05T17:25:55.143Z,13.53
2022-10-05T17:28:37.848Z,14.43
2022-10-05T17:31:17.046Z,12.63
2022-10-05T17:34:28.400Z,14.67
2022-10-05T17:36:59.738Z,13.53
2022-10-05T17:39:50.381Z,12.73
2022-10-05T17:42:49.188Z,9.93
2022-10-05T17:45:55.050Z,10.20
2022-10-05T17:48:44.091Z,8.53
2022-10-05T17:51:37.041Z,14.20
2022-10-05T17:54:40.695Z,13.23
2022-10-05T17:57:20.900Z,9.57
2022-10-05T18:00:00.761Z,12.03
2022-10-05T18:02:43.854Z,8.27
2022-10-05T18:05:25.697Z,10.03
2022-10-05T18:08:29.042Z,9.77
2022-10-05T18:11:17.067Z,10.70
2022-10-05T18:13:50.002Z,11.43
2022-10-05T18:16:55.194Z,10.83
2022-10-05T18:19:25.651Z,10.00
2022-10-05T18:22:03.403Z,9.47
2022-10-05T18:25:03.863Z,9.60
2022-10-05T18:28:00.836Z,10.17
2022-10-05T18:30:35.022Z,13.40
2022-10-05T18:33:52.329Z,9.30
2022-10-05T18:36:37.892Z,11.50
2022-10-05T18:39:21.439Z,12.23
2022-10-05T18:42:02.695Z,9.63
2022-10-05T18:44:40.054Z,14.67
2022-10-05T18:47:18.111Z,12.23
2022-10-05T18:50:16.877Z,14.10
2022-10-05T18:53:06.755Z,10.73
2022-10-05T18:55:40.328Z,10.53
2022-10-05T18:58:21.339Z,12.37
2022-10-05T19:01:19.817Z,8.97
2022-10-05T19:04:02.094Z,11.33
2022-10-05T19:06:34.082Z,10.17
2022-10-05T19:09:15.998Z,10.20
2022-10-05T19:11:51.599Z,10.87
2022-10-05T19:14:32.261Z,11.77
2022-10-05T19:17:13.699Z,11.43
2022-10-05T19:19:58.128Z,9.47
2022-10-05T19:22:40.318Z,9.03
2022-10-05T19:25:25.169Z,10.53
2022-10-05T19:28:03.360Z,11.10
2022-10-05T19:30:43.029Z,10.33
2022-10-05T19:33:29.291Z,11.07
2022-10-05T19:36:24.882Z,10.97
2022-10-05T19:39:03.427Z,11.77
2022-10-05T19:41:44.769Z,9.83
2022-10-05T19:44:20.826Z,8.87
2022-10-05T19:47:00.796Z,14.50
2022-10-05T19:49:49.095Z,9.97
2022-10-05T19:52:26.484Z,8.53
2022-10-05T19:55:13.922Z,11.00
2022-10-05T19:57:51.382Z,10.63
2022-10-05T20:00:24.632Z,11.87
2022-10-05T20:03:08.627Z,8.20
2022-10-05T20:05:37.327Z,11.60
2022-10-05T20:08:06.066Z,12.80
2022-10-05T20:10:35.099Z,9.47
2022-10-05T20:13:08.965Z,10.00
2022-10-05T20:16:06.745Z,14.43
2022-10-05T20:19:07.026Z,9.57
2022-10-05T20:21:42.306Z,10.97
2022-10-05T20:24:12.850Z,10.23
2022-10-05T20:27:01.373Z,8.50
2022-10-05T20:29:32.991Z,12.63
2022-10-05T20:32:01.824Z,10.23
2022-10-05T20:34:31.752Z,12.20
2022-10-05T20:37:00.244Z,9.73
2022-10-05T20:39:30.461Z,10.07
2022-10-05T20:41:59.491Z,11.07
2022-10-05T20:44:28.245Z,13.63
2022-10-05T20:46:58.649Z,14.73
2022-10-05T20:49:27.366Z,10.03
2022-10-05T20:51:56.528Z,8.70
2022-10-05T20:54:26.186Z,12.53
2022-10-05T20:56:55.847Z,9.97
2022-10-05T20:59:25.148Z,10.50
2022-10-05T21:01:53.676Z,10.73
2022-10-05T21:04:25.740Z,10.23
2022-10-05T21:06:54.958Z,9.33
2022-10-05T21:09:23.478Z,9.83
2022-10-05T21:11:52.913Z,12.67
2022-10-05T21:14:22.053Z,10.17
2022-10-05T21:16:50.691Z,12.17
2022-10-05T21:19:19.191Z,11.63
2022-10-05T21:21:49.051Z,11.37
2022-10-05T21:24:17.726Z,12.10
2022-10-05T21:26:46.612Z,12.67
2022-10-05T21:29:15.237Z,11.87
2022-10-05T21:31:43.874Z,9.27
2022-10-05T21:34:12.420Z,11.50
2022-10-05T21:36:40.988Z,7.83
2022-10-05T21:39:10.846Z,10.20
2022-10-05T21:41:39.510Z,10.67
2022-10-05T21:44:08.078Z,9.27
2022-10-05T21:46:37.770Z,9.77
2022-10-05T21:49:07.703Z,8.67
2022-10-05T21:51:37.500Z,14.33
2022-10-05T21:54:12.269Z,8.53
2022-10-05T21:56:44.174Z,10.87
2022-10-05T21:59:15.810Z,9.73
2022-10-05T22:01:44.365Z,11.10
2022-10-05T22:04:12.816Z,14.53
2022-10-05T22:06:41.338Z,11.47
2022-10-05T22:09:12.073Z,9.33
2022-10-05T22:11:40.558Z,11.23
2022-10-05T22:14:09.232Z,7.47
2022-10-05T22:16:40.110Z,7.37
2022-10-05T22:19:14.683Z,11.93
2022-10-05T22:21:43.256Z,7.53
2022-10-05T22:24:13.204Z,7.20
2022-10-05T22:26:42.915Z,7.70
2022-10-05T22:29:11.446Z,9.77
2022-10-05T22:31:40.290Z,9.77
2022-10-05T22:34:08.849Z,7.47
2022-10-05T22:36:37.575Z,12.63
2022-10-05T22:39:06.057Z,11.23
2022-10-05T22:41:35.898Z,8.77
2022-10-05T22:44:04.442Z,8.13
2022-10-05T22:46:32.898Z,8.93
2022-10-05T22:49:01.431Z,8.53
2022-10-05T22:51:30.020Z,11.87
2022-10-05T22:53:58.615Z,8.80
2022-10-05T22:56:27.260Z,8.93
2022-10-05T22:58:57.096Z,9.73
2022-10-05T23:01:25.626Z,9.33
2022-10-05T23:03:55.375Z,7.07
2022-10-05T23:06:26.455Z,8.33
2022-10-05T23:08:55.995Z,10.97
2022-10-05T23:11:26.363Z,6.80
2022-10-05T23:13:57.538Z,10.83
2022-10-05T23:16:28.286Z,8.67
2022-10-05T23:18:57.553Z,9.60
2022-10-05T23:21:28.799Z,8.73
2022-10-05T23:23:57.283Z,10.03
2022-10-05T23:26:26.643Z,10.13
2022-10-05T23:28:56.462Z,7.90
2022-10-05T23:31:27.077Z,11.00
2022-10-05T23:33:56.133Z,9.67
2022-10-05T23:36:26.514Z,7.10
2022-10-05T23:38:55.246Z,9.53
2022-10-05T23:41:24.913Z,8.73
2022-10-05T23:43:55.137Z,6.93
2022-10-05T23:46:25.181Z,9.20
2022-10-05T23:48:54.178Z,7.13
2022-10-05T23:51:22.593Z,7.10
2022-10-05T23:53:51.064Z,6.73
2022-10-05T23:56:19.512Z,6.97
2022-10-05T23:58:48.105Z,9.73
